sensor_id;sensor_type;location;lat;lon;timestamp;temperature;humidity
10042;DHT22;5061;49.068;12.058;2024-01-15T00:01:59;-4.40;99.90
10042;DHT22;5061;49.068;12.058;2024-01-15T00:05:20;-4.40;99.90
10042;DHT22;5061;49.068;12.058;2024-01-15T00:08:40;-4.30;99.90
10042;DHT22;5061;49.068;12.058;2024-01-15T00:12:01;-4.30;99.90
10042;DHT22;5061;49.068;12.058;2024-01-15T00:15:22;-4.20;99.90
10042;DHT22;5061;49.068;12.058;2024-01-15T00:18:43;-4.10;99.90
10042;DHT22;5061;49.068;12.058;2024-01-15T00:22:03;-4.00;99.90
10042;DHT22;5061;49.068;12.058;2024-01-15T00:25:24;-4.00;99.90
10042;DHT22;5061;49.068;12.058;2024-01-15T00:28:45;-3.90;99.90
10042;DHT22;5061;49.068;12.058;2024-01-15T00:32:05;-3.90;99.90
10042;DHT22;5061;49.068;12.058;2024-01-15T00:35:26;-3.90;99.90
10042;DHT22;5061;49.068;12.058;2024-01-15T00:38:47;-3.90;99.90
10042;DHT22;5061;49.068;12.058;2024-01-15T00:42:08;-3.90;99.90
10042;DHT22;5061;49.068;12.058;2024-01-15T00:45:28;-3.90;99.90
10042;DHT22;5061;49.068;12.058;2024-01-15T00:48:49;-3.90;99.90
10042;DHT22;5061;49.068;12.058;2024-01-15T00:52:09;-3.80;99.90
10042;DHT22;5061;49.068;12.058;2024-01-15T00:55:30;-3.80;99.90
10042;DHT22;5061;49.068;12.058;2024-01-15T00:58:51;-3.80;99.90
10042;DHT22;5061;49.068;12.058;2024-01-15T01:02:11;-3.80;99.90
10042;DHT22;5061;49.068;12.058;2024-01-15T01:05:33;-3.80;99.90
10042;DHT22;5061;49.068;12.058;2024-01-15T01:08:54;-3.80;99.90
10042;DHT22;5061;49.068;12.058;2024-01-15T01:12:15;-3.80;99.90
10042;DHT22;5061;49.068;12.058;2024-01-15T01:15:36;-3.80;99.90
10042;DHT22;5061;49.068;12.058;2024-01-15T01:19:05;-3.80;99.90
10042;DHT22;5061;49.068;12.058;2024-01-15T01:22:27;-3.80;99.90
10042;DHT22;5061;49.068;12.058;2024-01-15T01:25:47;-3.80;99.90
10042;DHT22;5061;49.068;12.058;2024-01-15T01:29:08;-3.80;99.90
10042;DHT22;5061;49.068;12.058;2024-01-15T01:32:29;-3.80;99.90
10042;DHT22;5061;49.068;12.058;2024-01-15T01:35:49;-3.80;99.90
10042;DHT22;5061;49.068;12.058;2024-01-15T01:39:10;-3.80;99.90
10042;DHT22;5061;49.068;12.058;2024-01-15T01:42:31;-3.80;99.90
10042;DHT22;5061;49.068;12.058;2024-01-15T01:45:52;-3.80;99.90
10042;DHT22;5061;49.068;12.058;2024-01-15T01:49:13;-3.70;99.90
10042;DHT22;5061;49.068;12.058;2024-01-15T01:52:34;-3.70;99.90
10042;DHT22;5061;49.068;12.058;2024-01-15T01:55:56;-3.70;99.90
10042;DHT22;5061;49.068;12.058;2024-01-15T01:59:17;-3.70;99.90
10042;DHT22;5061;49.068;12.058;2024-01-15T02:02:38;-3.70;99.90
10042;DHT22;5061;49.068;12.058;2024-01-15T02:06:02;-3.60;99.90
10042;DHT22;5061;49.068;12.058;2024-01-15T02:09:22;-3.60;99.90
10042;DHT22;5061;49.068;12.058;2024-01-15T02:12:43;-3.60;99.90
10042;DHT22;5061;49.068;12.058;2024-01-15T02:16:04;-3.70;99.90
10042;DHT22;5061;49.068;12.058;2024-01-15T02:19:25;-3.70;99.90
10042;DHT22;5061;49.068;12.058;2024-01-15T02:22:45;-3.70;99.90
10042;DHT22;5061;49.068;12.058;2024-01-15T02:26:06;-3.70;99.90
10042;DHT22;5061;49.068;12.058;2024-01-15T02:29:29;-3.70;99.90
10042;DHT22;5061;49.068;12.058;2024-01-15T02:32:50;-3.60;99.90
10042;DHT22;5061;49.068;12.058;2024-01-15T02:36:10;-3.70;99.90
10042;DHT22;5061;49.068;12.058;2024-01-15T02:39:31;-3.70;99.90
10042;DHT22;5061;49.068;12.058;2024-01-15T02:42:51;-3.70;99.90
10042;DHT22;5061;49.068;12.058;2024-01-15T02:46:12;-3.60;99.90
10042;DHT22;5061;49.068;12.058;2024-01-15T02:49:34;-3.60;99.90
10042;DHT22;5061;49.068;12.058;2024-01-15T02:52:55;-3.60;99.90
10042;DHT22;5061;49.068;12.058;2024-01-15T02:56:15;-3.60;99.90
10042;DHT22;5061;49.068;12.058;2024-01-15T02:59:36;-3.50;99.90
10042;DHT22;5061;49.068;12.058;2024-01-15T03:02:56;-3.50;99.90
10042;DHT22;5061;49.068;12.058;2024-01-15T03:06:17;-3.50;99.90
10042;DHT22;5061;49.068;12.058;2024-01-15T03:09:38;-3.50;99.90
10042;DHT22;5061;49.068;12.058;2024-01-15T03:12:58;-3.40;99.90
10042;DHT22;5061;49.068;12.058;2024-01-15T03:16:19;-3.40;99.90
10042;DHT22;5061;49.068;12.058;2024-01-15T03:19:41;-3.40;99.90
10042;DHT22;5061;49.068;12.058;2024-01-15T03:23:02;-3.40;99.90
10042;DHT22;5061;49.068;12.058;2024-01-15T03:26:22;-3.40;99.90
10042;DHT22;5061;49.068;12.058;2024-01-15T03:29:43;-3.30;99.90
10042;DHT22;5061;49.068;12.058;2024-01-15T03:33:04;-3.30;99.90
10042;DHT22;5061;49.068;12.058;2024-01-15T03:36:24;-3.30;99.90
10042;DHT22;5061;49.068;12.058;2024-01-15T03:39:45;-3.30;99.90
10042;DHT22;5061;49.068;12.058;2024-01-15T03:43:06;-3.20;99.90
10042;DHT22;5061;49.068;12.058;2024-01-15T03:46:27;-3.20;99.90
10042;DHT22;5061;49.068;12.058;2024-01-15T03:49:47;-3.20;99.90
10042;DHT22;5061;49.068;12.058;2024-01-15T03:53:08;-3.20;99.90
10042;DHT22;5061;49.068;12.058;2024-01-15T03:56:28;-3.20;99.90
10042;DHT22;5061;49.068;12.058;2024-01-15T03:59:49;-3.10;99.90
10042;DHT22;5061;49.068;12.058;2024-01-15T04:03:10;-3.10;99.90
10042;DHT22;5061;49.068;12.058;2024-01-15T04:06:30;-3.10;99.90
10042;DHT22;5061;49.068;12.058;2024-01-15T04:09:51;-3.10;99.90
10042;DHT22;5061;49.068;12.058;2024-01-15T04:13:12;-3.10;99.90
10042;DHT22;5061;49.068;12.058;2024-01-15T04:16:32;-3.10;99.90
10042;DHT22;5061;49.068;12.058;2024-01-15T04:19:53;-3.10;99.90
10042;DHT22;5061;49.068;12.058;2024-01-15T04:23:13;-3.10;99.90
10042;DHT22;5061;49.068;12.058;2024-01-15T04:26:34;-3.10;99.90
10042;DHT22;5061;49.068;12.058;2024-01-15T04:29:55;-3.00;99.90
10042;DHT22;5061;49.068;12.058;2024-01-15T04:33:15;-3.00;99.90
10042;DHT22;5061;49.068;12.058;2024-01-15T04:36:40;-3.00;99.90
10042;DHT22;5061;49.068;12.058;2024-01-15T04:40:02;-3.00;99.90
10042;DHT22;5061;49.068;12.058;2024-01-15T04:43:24;-3.00;99.90
10042;DHT22;5061;49.068;12.058;2024-01-15T04:46:44;-2.90;99.90
10042;DHT22;5061;49.068;12.058;2024-01-15T04:50:05;-2.90;99.90
10042;DHT22;5061;49.068;12.058;2024-01-15T04:53:26;-2.90;99.90
10042;DHT22;5061;49.068;12.058;2024-01-15T04:56:47;-2.90;99.90
10042;DHT22;5061;49.068;12.058;2024-01-15T05:00:08;-2.90;99.90
10042;DHT22;5061;49.068;12.058;2024-01-15T05:03:28;-2.90;99.90
10042;DHT22;5061;49.068;12.058;2024-01-15T05:06:50;-2.90;99.90
10042;DHT22;5061;49.068;12.058;2024-01-15T05:10:10;-2.90;99.90
10042;DHT22;5061;49.068;12.058;2024-01-15T05:13:31;-2.90;99.90
10042;DHT22;5061;49.068;12.058;2024-01-15T05:16:51;-2.90;99.90
10042;DHT22;5061;49.068;12.058;2024-01-15T05:20:12;-2.90;99.90
10042;DHT22;5061;49.068;12.058;2024-01-15T05:23:33;-2.90;99.90
10042;DHT22;5061;49.068;12.058;2024-01-15T05:26:53;-2.80;99.90
10042;DHT22;5061;49.068;12.058;2024-01-15T05:30:14;-2.80;99.90
10042;DHT22;5061;49.068;12.058;2024-01-15T05:33:35;-2.80;99.90
10042;DHT22;5061;49.068;12.058;2024-01-15T05:36:55;-2.80;99.90
10042;DHT22;5061;49.068;12.058;2024-01-15T05:40:16;-2.80;99.90
10042;DHT22;5061;49.068;12.058;2024-01-15T05:43:36;-2.80;99.90
10042;DHT22;5061;49.068;12.058;2024-01-15T05:46:57;-2.80;99.90
10042;DHT22;5061;49.068;12.058;2024-01-15T05:50:18;-2.80;99.90
10042;DHT22;5061;49.068;12.058;2024-01-15T05:53:38;-2.70;99.90
10042;DHT22;5061;49.068;12.058;2024-01-15T05:57:00;-2.70;99.90
10042;DHT22;5061;49.068;12.058;2024-01-15T06:00:21;-2.70;99.90
10042;DHT22;5061;49.068;12.058;2024-01-15T06:03:42;-2.70;99.90
10042;DHT22;5061;49.068;12.058;2024-01-15T06:07:02;-2.60;99.90
10042;DHT22;5061;49.068;12.058;2024-01-15T06:10:23;-2.60;99.90
10042;DHT22;5061;49.068;12.058;2024-01-15T06:13:44;-2.60;99.90
10042;DHT22;5061;49.068;12.058;2024-01-15T06:17:04;-2.60;99.90
10042;DHT22;5061;49.068;12.058;2024-01-15T06:20:25;-2.50;99.90
10042;DHT22;5061;49.068;12.058;2024-01-15T06:23:46;-2.50;99.90
10042;DHT22;5061;49.068;12.058;2024-01-15T06:27:06;-2.50;99.90
10042;DHT22;5061;49.068;12.058;2024-01-15T06:30:27;-2.50;99.90
10042;DHT22;5061;49.068;12.058;2024-01-15T06:33:48;-2.50;99.90
10042;DHT22;5061;49.068;12.058;2024-01-15T06:37:09;-2.50;99.90
10042;DHT22;5061;49.068;12.058;2024-01-15T06:40:29;-2.50;99.90
10042;DHT22;5061;49.068;12.058;2024-01-15T06:43:53;-2.50;99.90
10042;DHT22;5061;49.068;12.058;2024-01-15T06:47:17;-2.40;99.90
10042;DHT22;5061;49.068;12.058;2024-01-15T06:50:40;-2.40;99.90
10042;DHT22;5061;49.068;12.058;2024-01-15T06:54:01;-2.40;99.90
10042;DHT22;5061;49.068;12.058;2024-01-15T06:57:22;-2.40;99.90
10042;DHT22;5061;49.068;12.058;2024-01-15T07:00:42;-2.40;99.90
10042;DHT22;5061;49.068;12.058;2024-01-15T07:04:03;-2.40;99.90
10042;DHT22;5061;49.068;12.058;2024-01-15T07:07:24;-2.30;99.90
10042;DHT22;5061;49.068;12.058;2024-01-15T07:10:45;-2.30;99.90
10042;DHT22;5061;49.068;12.058;2024-01-15T07:14:06;-2.30;99.90
10042;DHT22;5061;49.068;12.058;2024-01-15T07:17:26;-2.30;99.90
10042;DHT22;5061;49.068;12.058;2024-01-15T07:20:47;-2.20;99.90
10042;DHT22;5061;49.068;12.058;2024-01-15T07:24:07;-2.20;99.90
10042;DHT22;5061;49.068;12.058;2024-01-15T07:27:29;-2.20;99.90
10042;DHT22;5061;49.068;12.058;2024-01-15T07:30:50;-2.10;99.90
10042;DHT22;5061;49.068;12.058;2024-01-15T07:34:10;-2.10;99.90
10042;DHT22;5061;49.068;12.058;2024-01-15T07:37:31;-2.00;99.90
10042;DHT22;5061;49.068;12.058;2024-01-15T07:40:52;-2.00;99.90
10042;DHT22;5061;49.068;12.058;2024-01-15T07:44:14;-2.00;99.90
10042;DHT22;5061;49.068;12.058;2024-01-15T07:47:35;-1.90;99.90
10042;DHT22;5061;49.068;12.058;2024-01-15T07:50:55;-1.90;99.90
10042;DHT22;5061;49.068;12.058;2024-01-15T07:54:16;-1.90;99.90
10042;DHT22;5061;49.068;12.058;2024-01-15T07:57:37;-1.90;99.90
10042;DHT22;5061;49.068;12.058;2024-01-15T08:00:57;-1.80;99.90
10042;DHT22;5061;49.068;12.058;2024-01-15T08:04:18;-1.80;99.90
10042;DHT22;5061;49.068;12.058;2024-01-15T08:07:39;-1.80;99.90
10042;DHT22;5061;49.068;12.058;2024-01-15T08:10:59;-1.80;99.90
10042;DHT22;5061;49.068;12.058;2024-01-15T08:14:20;-1.70;99.90
10042;DHT22;5061;49.068;12.058;2024-01-15T08:17:41;-1.70;99.90
10042;DHT22;5061;49.068;12.058;2024-01-15T08:21:01;-1.70;99.90
10042;DHT22;5061;49.068;12.058;2024-01-15T08:24:23;-1.60;99.90
10042;DHT22;5061;49.068;12.058;2024-01-15T08:27:43;-1.60;99.90
10042;DHT22;5061;49.068;12.058;2024-01-15T08:31:04;-1.60;99.90
10042;DHT22;5061;49.068;12.058;2024-01-15T08:34:24;-1.50;99.90
10042;DHT22;5061;49.068;12.058;2024-01-15T08:37:45;-1.50;99.90
10042;DHT22;5061;49.068;12.058;2024-01-15T08:41:05;-1.40;99.90
10042;DHT22;5061;49.068;12.058;2024-01-15T08:44:26;-1.40;99.90
10042;DHT22;5061;49.068;12.058;2024-01-15T08:47:47;-1.40;99.90
10042;DHT22;5061;49.068;12.058;2024-01-15T08:51:07;-1.30;99.90
10042;DHT22;5061;49.068;12.058;2024-01-15T08:54:28;-1.30;99.90
10042;DHT22;5061;49.068;12.058;2024-01-15T08:57:50;-1.20;99.90
10042;DHT22;5061;49.068;12.058;2024-01-15T09:01:11;-1.20;99.90
10042;DHT22;5061;49.068;12.058;2024-01-15T09:04:32;-1.10;99.90
10042;DHT22;5061;49.068;12.058;2024-01-15T09:07:53;-1.10;99.90
10042;DHT22;5061;49.068;12.058;2024-01-15T09:11:14;-1.00;99.90
10042;DHT22;5061;49.068;12.058;2024-01-15T09:14:35;-1.00;99.90
10042;DHT22;5061;49.068;12.058;2024-01-15T09:17:56;-0.90;99.90
10042;DHT22;5061;49.068;12.058;2024-01-15T09:21:18;-0.80;99.90
10042;DHT22;5061;49.068;12.058;2024-01-15T09:24:41;-0.80;99.90
10042;DHT22;5061;49.068;12.058;2024-01-15T09:28:02;-0.80;99.90
10042;DHT22;5061;49.068;12.058;2024-01-15T09:31:23;-0.80;99.90
10042;DHT22;5061;49.068;12.058;2024-01-15T09:34:44;-0.80;99.90
10042;DHT22;5061;49.068;12.058;2024-01-15T09:38:04;-0.80;99.90
10042;DHT22;5061;49.068;12.058;2024-01-15T09:41:26;-0.70;99.90
10042;DHT22;5061;49.068;12.058;2024-01-15T09:44:47;-0.80;99.90
10042;DHT22;5061;49.068;12.058;2024-01-15T09:48:08;-0.80;99.90
10042;DHT22;5061;49.068;12.058;2024-01-15T09:51:32;-0.80;99.90
10042;DHT22;5061;49.068;12.058;2024-01-15T09:54:53;-0.70;99.90
10042;DHT22;5061;49.068;12.058;2024-01-15T09:58:14;-0.70;99.90
10042;DHT22;5061;49.068;12.058;2024-01-15T10:01:36;-0.70;99.90
10042;DHT22;5061;49.068;12.058;2024-01-15T10:04:56;-0.60;99.90
10042;DHT22;5061;49.068;12.058;2024-01-15T10:08:17;-0.60;99.90
10042;DHT22;5061;49.068;12.058;2024-01-15T10:11:39;-0.70;99.90
10042;DHT22;5061;49.068;12.058;2024-01-15T10:14:59;-0.80;99.90
10042;DHT22;5061;49.068;12.058;2024-01-15T10:18:20;-1.00;99.90
10042;DHT22;5061;49.068;12.058;2024-01-15T10:21:41;-1.00;99.90
10042;DHT22;5061;49.068;12.058;2024-01-15T10:25:01;-1.00;99.90
10042;DHT22;5061;49.068;12.058;2024-01-15T10:28:22;-1.00;99.90
10042;DHT22;5061;49.068;12.058;2024-01-15T10:31:44;-1.00;99.90
10042;DHT22;5061;49.068;12.058;2024-01-15T10:35:07;-1.00;99.90
10042;DHT22;5061;49.068;12.058;2024-01-15T10:38:27;-1.00;99.90
10042;DHT22;5061;49.068;12.058;2024-01-15T10:41:48;-0.90;99.90
10042;DHT22;5061;49.068;12.058;2024-01-15T10:45:09;-1.00;99.90
10042;DHT22;5061;49.068;12.058;2024-01-15T10:48:30;-0.90;99.90
10042;DHT22;5061;49.068;12.058;2024-01-15T10:51:56;-0.90;99.90
10042;DHT22;5061;49.068;12.058;2024-01-15T10:55:17;-0.90;99.90
10042;DHT22;5061;49.068;12.058;2024-01-15T10:58:39;-0.90;99.90
10042;DHT22;5061;49.068;12.058;2024-01-15T11:02:00;-0.80;99.90
10042;DHT22;5061;49.068;12.058;2024-01-15T11:05:24;-0.80;99.90
10042;DHT22;5061;49.068;12.058;2024-01-15T11:08:49;-0.80;99.90
10042;DHT22;5061;49.068;12.058;2024-01-15T11:12:12;-0.80;99.90
10042;DHT22;5061;49.068;12.058;2024-01-15T11:19:18;-0.70;99.90
10042;DHT22;5061;49.068;12.058;2024-01-15T11:22:49;-0.60;99.90
10042;DHT22;5061;49.068;12.058;2024-01-15T11:26:35;-0.70;99.90
10042;DHT22;5061;49.068;12.058;2024-01-15T11:30:03;-0.70;99.90
10042;DHT22;5061;49.068;12.058;2024-01-15T11:33:34;-0.70;99.90
10042;DHT22;5061;49.068;12.058;2024-01-15T11:40:21;-0.70;99.90
10042;DHT22;5061;49.068;12.058;2024-01-15T11:43:42;-0.60;99.90
10042;DHT22;5061;49.068;12.058;2024-01-15T11:47:08;-0.60;99.90
10042;DHT22;5061;49.068;12.058;2024-01-15T11:50:30;-0.60;99.90
10042;DHT22;5061;49.068;12.058;2024-01-15T11:53:57;-0.60;99.90
10042;DHT22;5061;49.068;12.058;2024-01-15T11:57:50;-0.60;99.90
10042;DHT22;5061;49.068;12.058;2024-01-15T12:01:08;-0.60;99.90
10042;DHT22;5061;49.068;12.058;2024-01-15T12:04:29;-0.60;99.90
10042;DHT22;5061;49.068;12.058;2024-01-15T12:07:50;-0.50;99.90
10042;DHT22;5061;49.068;12.058;2024-01-15T12:11:13;-0.50;99.90
10042;DHT22;5061;49.068;12.058;2024-01-15T12:14:36;-0.50;99.90
10042;DHT22;5061;49.068;12.058;2024-01-15T12:17:59;-0.50;99.90
10042;DHT22;5061;49.068;12.058;2024-01-15T12:21:20;-0.50;99.90
10042;DHT22;5061;49.068;12.058;2024-01-15T12:24:41;-0.50;99.90
10042;DHT22;5061;49.068;12.058;2024-01-15T12:28:02;-0.50;99.90
10042;DHT22;5061;49.068;12.058;2024-01-15T12:31:23;-0.50;99.90
10042;DHT22;5061;49.068;12.058;2024-01-15T12:34:43;-0.50;99.90
10042;DHT22;5061;49.068;12.058;2024-01-15T12:38:04;-0.50;99.90
10042;DHT22;5061;49.068;12.058;2024-01-15T12:41:25;-0.50;99.90
10042;DHT22;5061;49.068;12.058;2024-01-15T12:44:46;-0.50;99.90
10042;DHT22;5061;49.068;12.058;2024-01-15T12:48:06;-0.50;99.90
10042;DHT22;5061;49.068;12.058;2024-01-15T12:51:27;-0.50;99.90
10042;DHT22;5061;49.068;12.058;2024-01-15T12:54:49;-0.50;99.90
10042;DHT22;5061;49.068;12.058;2024-01-15T12:58:10;-0.60;99.90
10042;DHT22;5061;49.068;12.058;2024-01-15T13:01:31;-0.60;99.90
10042;DHT22;5061;49.068;12.058;2024-01-15T13:04:52;-0.60;99.90
10042;DHT22;5061;49.068;12.058;2024-01-15T13:08:14;-0.60;99.90
10042;DHT22;5061;49.068;12.058;2024-01-15T13:11:35;-0.60;99.90
10042;DHT22;5061;49.068;12.058;2024-01-15T13:14:55;-0.60;99.90
10042;DHT22;5061;49.068;12.058;2024-01-15T13:18:16;-0.60;99.90
10042;DHT22;5061;49.068;12.058;2024-01-15T13:21:37;-0.60;99.90
10042;DHT22;5061;49.068;12.058;2024-01-15T13:24:58;-0.60;99.90
10042;DHT22;5061;49.068;12.058;2024-01-15T13:28:19;-0.70;99.90
10042;DHT22;5061;49.068;12.058;2024-01-15T13:31:41;-0.70;99.90
10042;DHT22;5061;49.068;12.058;2024-01-15T13:35:02;-0.70;99.90
10042;DHT22;5061;49.068;12.058;2024-01-15T13:38:26;-0.70;99.90
10042;DHT22;5061;49.068;12.058;2024-01-15T13:41:48;-0.70;99.90
10042;DHT22;5061;49.068;12.058;2024-01-15T13:45:08;-0.70;99.90
10042;DHT22;5061;49.068;12.058;2024-01-15T13:48:29;-0.70;99.90
10042;DHT22;5061;49.068;12.058;2024-01-15T13:51:50;-0.70;99.90
10042;DHT22;5061;49.068;12.058;2024-01-15T13:55:10;-0.70;99.90
10042;DHT22;5061;49.068;12.058;2024-01-15T13:58:31;-0.70;99.90
10042;DHT22;5061;49.068;12.058;2024-01-15T14:01:53;-0.70;99.90
10042;DHT22;5061;49.068;12.058;2024-01-15T14:05:13;-0.70;99.90
10042;DHT22;5061;49.068;12.058;2024-01-15T14:08:37;-0.70;99.90
10042;DHT22;5061;49.068;12.058;2024-01-15T14:11:58;-0.70;99.90
10042;DHT22;5061;49.068;12.058;2024-01-15T14:15:18;-0.80;99.90
10042;DHT22;5061;49.068;12.058;2024-01-15T14:18:41;-0.80;99.90
10042;DHT22;5061;49.068;12.058;2024-01-15T14:22:02;-0.80;99.90
10042;DHT22;5061;49.068;12.058;2024-01-15T14:25:23;-0.80;99.90
10042;DHT22;5061;49.068;12.058;2024-01-15T14:28:46;-0.90;99.90
10042;DHT22;5061;49.068;12.058;2024-01-15T14:32:08;-0.90;99.90
10042;DHT22;5061;49.068;12.058;2024-01-15T14:35:29;-0.90;99.90
10042;DHT22;5061;49.068;12.058;2024-01-15T14:38:49;-0.90;99.90
10042;DHT22;5061;49.068;12.058;2024-01-15T14:42:10;-0.90;99.90
10042;DHT22;5061;49.068;12.058;2024-01-15T14:45:31;-1.00;99.90
10042;DHT22;5061;49.068;12.058;2024-01-15T14:48:52;-1.00;99.90
10042;DHT22;5061;49.068;12.058;2024-01-15T14:52:12;-1.00;99.90
10042;DHT22;5061;49.068;12.058;2024-01-15T14:55:33;-1.00;99.90
10042;DHT22;5061;49.068;12.058;2024-01-15T14:58:54;-1.00;99.90
10042;DHT22;5061;49.068;12.058;2024-01-15T15:02:14;-1.00;99.90
10042;DHT22;5061;49.068;12.058;2024-01-15T15:05:35;-1.00;99.90
10042;DHT22;5061;49.068;12.058;2024-01-15T15:08:56;-1.00;99.90
10042;DHT22;5061;49.068;12.058;2024-01-15T15:12:19;-1.00;99.90
10042;DHT22;5061;49.068;12.058;2024-01-15T15:15:40;-1.00;99.90
10042;DHT22;5061;49.068;12.058;2024-01-15T15:19:01;-1.00;99.90
10042;DHT22;5061;49.068;12.058;2024-01-15T15:22:21;-1.00;99.90
10042;DHT22;5061;49.068;12.058;2024-01-15T15:25:42;-1.00;99.90
10042;DHT22;5061;49.068;12.058;2024-01-15T15:29:03;-1.00;99.90
10042;DHT22;5061;49.068;12.058;2024-01-15T15:32:24;-1.00;99.90
10042;DHT22;5061;49.068;12.058;2024-01-15T15:35:44;-1.00;99.90
10042;DHT22;5061;49.068;12.058;2024-01-15T15:39:05;-1.00;99.90
10042;DHT22;5061;49.068;12.058;2024-01-15T15:42:26;-1.00;99.90
10042;DHT22;5061;49.068;12.058;2024-01-15T15:45:46;-1.00;99.90
10042;DHT22;5061;49.068;12.058;2024-01-15T15:49:07;-1.00;99.90
10042;DHT22;5061;49.068;12.058;2024-01-15T15:52:28;-1.00;99.90
10042;DHT22;5061;49.068;12.058;2024-01-15T15:55:48;-1.00;99.90
10042;DHT22;5061;49.068;12.058;2024-01-15T15:59:09;-1.00;99.90
10042;DHT22;5061;49.068;12.058;2024-01-15T16:02:30;-1.10;99.90
10042;DHT22;5061;49.068;12.058;2024-01-15T16:05:50;-1.10;99.90
10042;DHT22;5061;49.068;12.058;2024-01-15T16:09:11;-1.10;99.90
10042;DHT22;5061;49.068;12.058;2024-01-15T16:12:31;-1.10;99.90
10042;DHT22;5061;49.068;12.058;2024-01-15T16:15:52;-1.10;99.90
10042;DHT22;5061;49.068;12.058;2024-01-15T16:19:13;-1.10;99.90
10042;DHT22;5061;49.068;12.058;2024-01-15T16:22:33;-1.10;99.90
10042;DHT22;5061;49.068;12.058;2024-01-15T16:25:54;-1.10;99.90
10042;DHT22;5061;49.068;12.058;2024-01-15T16:29:14;-1.10;99.90
10042;DHT22;5061;49.068;12.058;2024-01-15T16:32:35;-1.10;99.90
10042;DHT22;5061;49.068;12.058;2024-01-15T16:35:56;-1.10;99.90
10042;DHT22;5061;49.068;12.058;2024-01-15T16:39:17;-1.10;99.90
10042;DHT22;5061;49.068;12.058;2024-01-15T16:42:38;-1.10;99.90
10042;DHT22;5061;49.068;12.058;2024-01-15T16:45:59;-1.00;99.90
10042;DHT22;5061;49.068;12.058;2024-01-15T16:49:19;-1.00;99.90
10042;DHT22;5061;49.068;12.058;2024-01-15T16:52:40;-1.00;99.90
10042;DHT22;5061;49.068;12.058;2024-01-15T16:56:00;-1.00;99.90
10042;DHT22;5061;49.068;12.058;2024-01-15T16:59:21;-1.00;99.90
10042;DHT22;5061;49.068;12.058;2024-01-15T17:02:42;-1.00;99.90
10042;DHT22;5061;49.068;12.058;2024-01-15T17:06:03;-1.00;99.90
10042;DHT22;5061;49.068;12.058;2024-01-15T17:09:24;-1.00;99.90
10042;DHT22;5061;49.068;12.058;2024-01-15T17:12:44;-1.00;99.90
10042;DHT22;5061;49.068;12.058;2024-01-15T17:16:05;-1.00;99.90
10042;DHT22;5061;49.068;12.058;2024-01-15T17:19:26;-1.00;99.90
10042;DHT22;5061;49.068;12.058;2024-01-15T17:22:47;-1.10;99.90
10042;DHT22;5061;49.068;12.058;2024-01-15T17:26:08;-1.10;99.90
10042;DHT22;5061;49.068;12.058;2024-01-15T17:29:28;-1.10;99.90
10042;DHT22;5061;49.068;12.058;2024-01-15T17:32:49;-1.10;99.90
10042;DHT22;5061;49.068;12.058;2024-01-15T17:36:10;-1.00;99.90
10042;DHT22;5061;49.068;12.058;2024-01-15T17:39:30;-1.10;99.90
10042;DHT22;5061;49.068;12.058;2024-01-15T17:42:51;-1.10;99.90
10042;DHT22;5061;49.068;12.058;2024-01-15T17:46:12;-1.10;99.90
10042;DHT22;5061;49.068;12.058;2024-01-15T17:49:34;-1.10;99.90
10042;DHT22;5061;49.068;12.058;2024-01-15T17:52:55;-1.10;99.90
10042;DHT22;5061;49.068;12.058;2024-01-15T17:56:17;-1.10;99.90
10042;DHT22;5061;49.068;12.058;2024-01-15T17:59:38;-1.10;99.90
10042;DHT22;5061;49.068;12.058;2024-01-15T18:02:59;-1.10;99.90
10042;DHT22;5061;49.068;12.058;2024-01-15T18:06:19;-1.10;99.90
10042;DHT22;5061;49.068;12.058;2024-01-15T18:09:40;-1.10;99.90
10042;DHT22;5061;49.068;12.058;2024-01-15T18:13:01;-1.00;99.90
10042;DHT22;5061;49.068;12.058;2024-01-15T18:16:22;-1.10;99.90
10042;DHT22;5061;49.068;12.058;2024-01-15T18:19:46;-1.10;99.90
10042;DHT22;5061;49.068;12.058;2024-01-15T18:23:07;-1.10;99.90
10042;DHT22;5061;49.068;12.058;2024-01-15T18:26:27;-1.10;99.90
10042;DHT22;5061;49.068;12.058;2024-01-15T18:29:48;-1.10;99.90
10042;DHT22;5061;49.068;12.058;2024-01-15T18:33:10;-1.00;99.90
10042;DHT22;5061;49.068;12.058;2024-01-15T18:36:30;-1.10;99.90
10042;DHT22;5061;49.068;12.058;2024-01-15T18:39:51;-1.10;99.90
10042;DHT22;5061;49.068;12.058;2024-01-15T18:43:12;-1.10;99.90
10042;DHT22;5061;49.068;12.058;2024-01-15T18:46:34;-1.10;99.90
10042;DHT22;5061;49.068;12.058;2024-01-15T18:49:54;-1.20;99.90
10042;DHT22;5061;49.068;12.058;2024-01-15T18:53:15;-1.20;99.90
10042;DHT22;5061;49.068;12.058;2024-01-15T18:56:43;-1.20;99.90
10042;DHT22;5061;49.068;12.058;2024-01-15T19:00:04;-1.20;99.90
10042;DHT22;5061;49.068;12.058;2024-01-15T19:03:25;-1.30;99.90
10042;DHT22;5061;49.068;12.058;2024-01-15T19:06:46;-1.30;99.90
10042;DHT22;5061;49.068;12.058;2024-01-15T19:10:07;-1.30;99.90
10042;DHT22;5061;49.068;12.058;2024-01-15T19:13:28;-1.30;99.90
10042;DHT22;5061;49.068;12.058;2024-01-15T19:16:49;-1.30;99.90
10042;DHT22;5061;49.068;12.058;2024-01-15T19:20:10;-1.30;99.90
10042;DHT22;5061;49.068;12.058;2024-01-15T19:23:31;-1.30;99.90
10042;DHT22;5061;49.068;12.058;2024-01-15T19:26:52;-1.20;99.90
10042;DHT22;5061;49.068;12.058;2024-01-15T19:30:13;-1.30;99.90
10042;DHT22;5061;49.068;12.058;2024-01-15T19:33:35;-1.30;99.90
10042;DHT22;5061;49.068;12.058;2024-01-15T19:36:56;-1.30;99.90
10042;DHT22;5061;49.068;12.058;2024-01-15T19:40:16;-1.30;99.90
10042;DHT22;5061;49.068;12.058;2024-01-15T19:43:37;-1.30;99.90
10042;DHT22;5061;49.068;12.058;2024-01-15T19:46:58;-1.20;99.90
10042;DHT22;5061;49.068;12.058;2024-01-15T19:50:18;-1.20;99.90
10042;DHT22;5061;49.068;12.058;2024-01-15T19:53:39;-1.20;99.90
10042;DHT22;5061;49.068;12.058;2024-01-15T19:56:59;-1.30;99.90
10042;DHT22;5061;49.068;12.058;2024-01-15T20:00:20;-1.30;99.90
10042;DHT22;5061;49.068;12.058;2024-01-15T20:03:41;-1.30;99.90
10042;DHT22;5061;49.068;12.058;2024-01-15T20:07:03;-1.30;99.90
10042;DHT22;5061;49.068;12.058;2024-01-15T20:10:24;-1.30;99.90
10042;DHT22;5061;49.068;12.058;2024-01-15T20:13:45;-1.20;99.90
10042;DHT22;5061;49.068;12.058;2024-01-15T20:17:06;-1.30;99.90
10042;DHT22;5061;49.068;12.058;2024-01-15T20:20:27;-1.30;99.90
10042;DHT22;5061;49.068;12.058;2024-01-15T20:23:47;-1.30;99.90
10042;DHT22;5061;49.068;12.058;2024-01-15T20:27:08;-1.20;99.90
10042;DHT22;5061;49.068;12.058;2024-01-15T20:30:29;-1.20;99.90
10042;DHT22;5061;49.068;12.058;2024-01-15T20:33:50;-1.20;99.90
10042;DHT22;5061;49.068;12.058;2024-01-15T20:37:11;-1.20;99.90
10042;DHT22;5061;49.068;12.058;2024-01-15T20:40:32;-1.30;99.90
10042;DHT22;5061;49.068;12.058;2024-01-15T20:43:53;-1.20;99.90
10042;DHT22;5061;49.068;12.058;2024-01-15T20:47:15;-1.30;99.90
10042;DHT22;5061;49.068;12.058;2024-01-15T20:50:35;-1.30;99.90
10042;DHT22;5061;49.068;12.058;2024-01-15T20:53:56;-1.30;99.90
10042;DHT22;5061;49.068;12.058;2024-01-15T20:57:17;-1.30;99.90
10042;DHT22;5061;49.068;12.058;2024-01-15T21:00:37;-1.30;99.90
10042;DHT22;5061;49.068;12.058;2024-01-15T21:03:59;-1.30;99.90
10042;DHT22;5061;49.068;12.058;2024-01-15T21:07:20;-1.30;99.90
10042;DHT22;5061;49.068;12.058;2024-01-15T21:10:40;-1.30;99.90
10042;DHT22;5061;49.068;12.058;2024-01-15T21:14:02;-1.30;99.90
10042;DHT22;5061;49.068;12.058;2024-01-15T21:17:23;-1.30;99.90